Time;durP1;ratioP1;P1;durP2;ratioP2;P2;SDS_P1;SDS_P2;PMS_P1;PMS_P2;Temp;Humidity;BMP_temperature;BMP_pressure;BME280_temperature;BME280_humidity;BME280_pressure;Samples;Min_cycle;Max_cycle;Signal;HPM_P1;HPM_P2
2021/12/08 00:00:28;;;;;;;1999.90;999.90;;;;;;;;;;4964406;28;20033;-86
2021/12/08 00:02:55;;;;;;;1999.90;999.90;;;;;;;;;;4963412;28;20034;-87
2021/12/08 00:05:22;;;;;;;1101.60;508.63;;;;;;;;;;4995053;28;20046;-86
2021/12/08 00:07:49;;;;;;;1999.90;999.90;;;;;;;;;;4964936;28;20065;-85
2021/12/08 00:10:39;;;;;;;1999.90;999.90;;;;;;;;;;4980780;28;20034;-86
2021/12/08 00:13:05;;;;;;;1999.90;999.90;;;;;;;;;;4985596;28;20116;-86
2021/12/08 00:15:32;;;;;;;1999.90;999.90;;;;;;;;;;4964832;28;20034;-86
2021/12/08 00:17:59;;;;;;;1999.90;999.90;;;;;;;;;;4980281;28;20045;-85
2021/12/08 00:20:27;;;;;;;1999.90;999.90;;;;;;;;;;4979202;28;20029;-86
2021/12/08 00:22:54;;;;;;;1124.57;509.88;;;;;;;;;;4981008;28;20041;-85
2021/12/08 00:25:19;;;;;;;1999.90;999.90;;;;;;;;;;4977282;28;20042;-86
2021/12/08 00:27:46;;;;;;;1999.90;999.90;;;;;;;;;;4965568;28;20048;-85
2021/12/08 00:30:12;;;;;;;1999.90;999.90;;;;;;;;;;4963913;28;20026;-85
2021/12/08 00:32:38;;;;;;;1999.90;999.90;;;;;;;;;;4980248;28;20045;-85
2021/12/08 00:35:04;;;;;;;1575.90;754.78;;;;;;;;;;4963887;28;20034;-85
2021/12/08 00:37:31;;;;;;;1999.90;999.90;;;;;;;;;;4964356;28;20026;-84
2021/12/08 00:39:57;;;;;;;1999.90;999.90;;;;;;;;;;4979832;28;20121;-85
2021/12/08 00:42:24;;;;;;;1603.10;756.63;;;;;;;;;;4979511;28;20042;-84
2021/12/08 00:44:49;;;;;;;1548.80;753.20;;;;;;;;;;4995369;28;20388;-84
2021/12/08 00:47:15;;;;;;;1999.90;999.90;;;;;;;;;;4963087;28;20046;-84
2021/12/08 00:49:40;;;;;;;1589.10;756.35;;;;;;;;;;4979403;28;20041;-85
2021/12/08 00:52:06;;;;;;;1999.90;999.90;;;;;;;;;;4979828;28;20032;-84
2021/12/08 00:54:32;;;;;;;1999.90;999.90;;;;;;;;;;4995898;28;20038;-85
2021/12/08 00:56:57;;;;;;;1999.90;999.90;;;;;;;;;;4963735;28;20038;-84
2021/12/08 00:59:24;;;;;;;1093.78;508.48;;;;;;;;;;4979069;28;20111;-83
2021/12/08 01:01:50;;;;;;;1999.90;999.90;;;;;;;;;;4979397;28;20084;-84
2021/12/08 01:04:16;;;;;;;1999.90;999.90;;;;;;;;;;4962944;28;20034;-84
2021/12/08 01:06:43;;;;;;;1999.90;999.90;;;;;;;;;;4963145;28;20040;-85
2021/12/08 01:09:11;;;;;;;1999.90;999.90;;;;;;;;;;4995192;28;20117;-84
2021/12/08 01:11:37;;;;;;;1999.90;999.90;;;;;;;;;;4976197;28;20137;-85
2021/12/08 01:14:03;;;;;;;1999.90;999.90;;;;;;;;;;4968620;28;20145;-85
2021/12/08 01:16:28;;;;;;;1568.28;754.97;;;;;;;;;;4978988;28;20034;-85
2021/12/08 01:18:55;;;;;;;1999.90;999.90;;;;;;;;;;4979056;28;20037;-85
2021/12/08 01:21:21;;;;;;;1999.90;999.90;;;;;;;;;;4979113;28;20034;-85
2021/12/08 01:23:47;;;;;;;1999.90;999.90;;;;;;;;;;4962786;28;20029;-85
2021/12/08 01:26:12;;;;;;;1999.90;999.90;;;;;;;;;;4978500;28;20037;-84
2021/12/08 01:28:38;;;;;;;1999.90;999.90;;;;;;;;;;4978968;28;20069;-85
2021/12/08 01:31:05;;;;;;;1999.90;999.90;;;;;;;;;;4978366;28;20042;-85
2021/12/08 01:33:33;;;;;;;1999.90;999.90;;;;;;;;;;4978637;28;20565;-85
2021/12/08 01:36:02;;;;;;;1999.90;999.90;;;;;;;;;;4978990;28;20519;-85
2021/12/08 01:38:27;;;;;;;1999.90;999.90;;;;;;;;;;4978916;28;20373;-84
2021/12/08 01:40:53;;;;;;;1071.05;507.75;;;;;;;;;;4994334;28;20044;-84
2021/12/08 01:43:29;;;;;;;1999.90;999.90;;;;;;;;;;4978602;28;20121;-83
2021/12/08 01:46:02;;;;;;;1999.90;999.90;;;;;;;;;;4981246;28;20037;-84
2021/12/08 01:48:30;;;;;;;1999.90;999.90;;;;;;;;;;4978618;28;20036;-84
2021/12/08 01:51:06;;;;;;;1999.90;999.90;;;;;;;;;;4959376;28;20041;-84
2021/12/08 01:53:32;;;;;;;1999.90;999.90;;;;;;;;;;4979620;28;20037;-85
2021/12/08 01:55:57;;;;;;;1999.90;999.90;;;;;;;;;;4962471;28;20129;-85
2021/12/08 01:58:23;;;;;;;1999.90;999.90;;;;;;;;;;4978496;28;20041;-84
2021/12/08 02:00:55;;;;;;;1999.90;999.90;;;;;;;;;;4961818;28;20392;-84
2021/12/08 02:03:21;;;;;;;;;;;;;;;;;;4976515;28;20045;-84
2021/12/08 02:05:46;;;;;;;1999.90;999.90;;;;;;;;;;4978414;28;19906;-85
2021/12/08 02:08:12;;;;;;;1999.90;999.90;;;;;;;;;;4961485;28;20034;-84
2021/12/08 02:10:38;;;;;;;1999.90;999.90;;;;;;;;;;4961887;28;20044;-84
2021/12/08 02:13:05;;;;;;;1999.90;999.90;;;;;;;;;;4962800;28;20030;-85
2021/12/08 02:15:33;;;;;;;1999.90;999.90;;;;;;;;;;4960805;28;20041;-85
2021/12/08 02:17:59;;;;;;;1999.90;999.90;;;;;;;;;;4978809;28;20095;-84
2021/12/08 02:20:27;;;;;;;1583.38;756.65;;;;;;;;;;4962329;28;20116;-84
2021/12/08 02:22:52;;;;;;;1999.90;999.90;;;;;;;;;;4978180;28;20030;-84
2021/12/08 02:25:19;;;;;;;1999.90;999.90;;;;;;;;;;4961816;28;20566;-85
2021/12/08 02:27:45;;;;;;;1999.90;999.90;;;;;;;;;;4994468;28;20040;-85
2021/12/08 02:49:06;;;;;;;1999.90;999.90;;;;;;;;;;4998122;28;20490;-85
2021/12/08 02:51:31;;;;;;;1070.78;506.92;;;;;;;;;;4981959;28;20038;-84
2021/12/08 02:54:00;;;;;;;1999.90;999.90;;;;;;;;;;4997331;28;20042;-84
2021/12/08 02:56:26;;;;;;;1999.90;999.90;;;;;;;;;;4981807;28;20038;-84
2021/12/08 02:58:51;;;;;;;1999.90;999.90;;;;;;;;;;4981212;28;20399;-85
2021/12/08 03:01:17;;;;;;;1999.90;999.90;;;;;;;;;;4961758;28;20531;-85
2021/12/08 03:03:43;;;;;;;1999.90;999.90;;;;;;;;;;4965648;28;20042;-84
2021/12/08 03:06:08;;;;;;;1999.90;999.90;;;;;;;;;;4997355;28;20022;-85
2021/12/08 03:08:34;;;;;;;1999.90;999.90;;;;;;;;;;4998418;28;20037;-85
2021/12/08 03:10:59;;;;;;;1999.90;999.90;;;;;;;;;;4980535;28;20030;-84
2021/12/08 03:13:32;;;;;;;1999.90;999.90;;;;;;;;;;4981212;28;20037;-84
2021/12/08 03:15:58;;;;;;;1999.90;999.90;;;;;;;;;;4980649;28;20133;-85
2021/12/08 03:18:31;;;;;;;1999.90;999.90;;;;;;;;;;4981013;28;20041;-85
2021/12/08 03:20:57;;;;;;;1999.90;999.90;;;;;;;;;;4990914;28;20040;-84
2021/12/08 03:23:28;;;;;;;1999.90;999.90;;;;;;;;;;4965377;28;20033;-84
2021/12/08 03:25:59;;;;;;;1999.90;999.90;;;;;;;;;;4966353;28;20022;-84
2021/12/08 03:28:29;;;;;;;1999.90;999.90;;;;;;;;;;4949303;28;20045;-85
2021/12/08 03:31:12;;;;;;;1999.90;999.90;;;;;;;;;;4997066;28;20030;-86
2021/12/08 03:33:38;;;;;;;1999.90;999.90;;;;;;;;;;4993867;28;20058;-85
2021/12/08 03:36:03;;;;;;;1999.90;999.90;;;;;;;;;;4990236;28;20060;-85
2021/12/08 03:38:29;;;;;;;1999.90;999.90;;;;;;;;;;4980513;28;20488;-85
2021/12/08 03:40:57;;;;;;;1999.90;999.90;;;;;;;;;;4980667;28;20026;-85
2021/12/08 03:43:23;;;;;;;1999.90;999.90;;;;;;;;;;4981235;28;20121;-85
2021/12/08 03:45:50;;;;;;;1999.90;999.90;;;;;;;;;;4980485;28;20133;-85
2021/12/08 03:48:24;;;;;;;1999.90;999.90;;;;;;;;;;4964484;28;20034;-85
2021/12/08 03:50:50;;;;;;;1999.90;999.90;;;;;;;;;;4996111;28;20046;-84
2021/12/08 03:53:16;;;;;;;1999.90;999.90;;;;;;;;;;4964180;28;20065;-85
2021/12/08 03:55:43;;;;;;;1999.90;999.90;;;;;;;;;;4980503;28;20532;-84
2021/12/08 03:58:10;;;;;;;1999.90;999.90;;;;;;;;;;5013032;28;20038;-85
2021/12/08 04:00:36;;;;;;;1999.90;999.90;;;;;;;;;;4996768;28;20042;-85
2021/12/08 04:03:06;;;;;;;1999.90;999.90;;;;;;;;;;4980631;28;20384;-85
2021/12/08 04:05:53;;;;;;;1999.90;999.90;;;;;;;;;;4965837;28;20028;-84
2021/12/08 04:08:27;;;;;;;1999.90;999.90;;;;;;;;;;4979937;28;20092;-85
2021/12/08 04:10:52;;;;;;;1999.90;999.90;;;;;;;;;;4981362;28;20147;-85
2021/12/08 04:13:20;;;;;;;1999.90;999.90;;;;;;;;;;4980716;28;20476;-85
2021/12/08 04:15:47;;;;;;;1534.65;752.83;;;;;;;;;;4980757;28;20083;-85
2021/12/08 04:18:12;;;;;;;1999.90;999.90;;;;;;;;;;4980454;28;20034;-85
2021/12/08 04:20:42;;;;;;;1999.90;999.90;;;;;;;;;;4964472;28;20072;-85
2021/12/08 04:23:09;;;;;;;1999.90;999.90;;;;;;;;;;4980719;28;20049;-85
2021/12/08 04:25:36;;;;;;;1999.90;999.90;;;;;;;;;;4980006;28;20026;-85
2021/12/08 04:28:05;;;;;;;1999.90;999.90;;;;;;;;;;4963641;28;20042;-85
2021/12/08 04:30:40;;;;;;;1999.90;999.90;;;;;;;;;;4979955;28;20087;-86
2021/12/08 04:33:11;;;;;;;1999.90;999.90;;;;;;;;;;4977832;28;20041;-85
2021/12/08 04:35:39;;;;;;;1999.90;999.90;;;;;;;;;;4980305;28;20115;-85
2021/12/08 04:38:08;;;;;;;1999.90;999.90;;;;;;;;;;4963922;28;20112;-85
2021/12/08 04:43:19;;;;;;;1999.90;999.90;;;;;;;;;;4981082;28;20037;-84
2021/12/08 04:51:22;;;;;;;1999.90;999.90;;;;;;;;;;4971647;28;20022;-85
2021/12/08 05:00:11;;;;;;;1999.90;999.90;;;;;;;;;;4981596;28;20044;-84
2021/12/08 05:04:51;;;;;;;1999.90;999.90;;;;;;;;;;4993362;28;20476;-84
2021/12/08 05:10:07;;;;;;;1999.90;999.90;;;;;;;;;;4991631;28;20034;-84
2021/12/08 05:12:34;;;;;;;1999.90;999.90;;;;;;;;;;4963333;28;20045;-84
2021/12/08 05:15:12;;;;;;;1999.90;999.90;;;;;;;;;;4961678;28;20037;-81
2021/12/08 05:17:40;;;;;;;1999.90;999.90;;;;;;;;;;4995842;28;20049;-86
2021/12/08 05:20:16;;;;;;;1999.90;999.90;;;;;;;;;;4995692;28;20141;-85
2021/12/08 05:22:47;;;;;;;1999.90;999.90;;;;;;;;;;4979809;28;20519;-85
2021/12/08 05:25:15;;;;;;;1999.90;999.90;;;;;;;;;;4978520;28;20049;-85
2021/12/08 05:27:47;;;;;;;1999.90;999.90;;;;;;;;;;4979097;28;20049;-87
2021/12/08 05:30:19;;;;;;;;;;;;;;;;;;4979580;28;20040;-86
2021/12/08 05:32:46;;;;;;;1999.90;999.90;;;;;;;;;;4995274;28;19913;-86
2021/12/08 05:35:12;;;;;;;1999.90;999.90;;;;;;;;;;4963148;28;20113;-86
2021/12/08 05:37:38;;;;;;;1999.90;999.90;;;;;;;;;;4962881;28;20045;-84
2021/12/08 05:40:07;;;;;;;1999.90;999.90;;;;;;;;;;4974307;28;20030;-86
2021/12/08 05:42:35;;;;;;;1999.90;999.90;;;;;;;;;;4955503;28;20034;-85
2021/12/08 05:45:03;;;;;;;1999.90;999.90;;;;;;;;;;4959634;28;20022;-84
2021/12/08 05:47:29;;;;;;;1999.90;999.90;;;;;;;;;;4968440;28;20033;-85
2021/12/08 05:49:54;;;;;;;1999.90;999.90;;;;;;;;;;4993378;28;20040;-85
2021/12/08 05:52:20;;;;;;;1999.90;999.90;;;;;;;;;;4976831;28;20041;-84
2021/12/08 05:54:46;;;;;;;1999.90;999.90;;;;;;;;;;4993657;28;20088;-85
2021/12/08 05:57:39;;;;;;;1999.90;999.90;;;;;;;;;;4996633;28;20396;-85
2021/12/08 06:00:14;;;;;;;1999.90;999.90;;;;;;;;;;4992374;28;20037;-85
2021/12/08 06:02:41;;;;;;;1999.90;999.90;;;;;;;;;;4960418;28;20057;-85
2021/12/08 06:05:08;;;;;;;1999.90;999.90;;;;;;;;;;4975432;28;20031;-85
2021/12/08 06:07:34;;;;;;;1999.90;999.90;;;;;;;;;;4976534;28;20112;-85
2021/12/08 06:10:01;;;;;;;1999.90;999.90;;;;;;;;;;4976263;28;20108;-81
2021/12/08 06:12:27;;;;;;;1999.90;999.90;;;;;;;;;;4991390;28;20385;-80
2021/12/08 06:14:55;;;;;;;1999.90;999.90;;;;;;;;;;4992274;28;20072;-80
2021/12/08 06:17:23;;;;;;;1043.28;507.05;;;;;;;;;;4994253;28;20026;-79
2021/12/08 06:19:48;;;;;;;1999.90;999.90;;;;;;;;;;5011841;28;20038;-81
2021/12/08 06:22:15;;;;;;;1999.90;999.90;;;;;;;;;;4994052;28;20063;-82
2021/12/08 06:24:41;;;;;;;1999.90;999.90;;;;;;;;;;4961612;28;20030;-82
2021/12/08 06:27:06;;;;;;;1999.90;999.90;;;;;;;;;;4978178;28;20045;-83
2021/12/08 06:29:31;;;;;;;1999.90;999.90;;;;;;;;;;4993935;28;20034;-82
2021/12/08 06:31:58;;;;;;;1999.90;999.90;;;;;;;;;;4993820;28;20041;-82
2021/12/08 06:34:23;;;;;;;1999.90;999.90;;;;;;;;;;4993206;28;20049;-83
2021/12/08 06:37:13;;;;;;;1999.90;999.90;;;;;;;;;;4977745;28;20524;-83
2021/12/08 06:40:01;;;;;;;1999.90;999.90;;;;;;;;;;5008268;28;20060;-82
2021/12/08 06:42:28;;;;;;;1999.90;999.90;;;;;;;;;;5001281;28;20054;-82
2021/12/08 06:44:54;;;;;;;1999.90;999.90;;;;;;;;;;4989729;28;20038;-82
2021/12/08 06:47:21;;;;;;;1999.90;999.90;;;;;;;;;;4977541;28;20038;-82
2021/12/08 06:49:48;;;;;;;1999.90;999.90;;;;;;;;;;4992602;28;20483;-82
2021/12/08 06:52:18;;;;;;;1999.90;999.90;;;;;;;;;;4958780;28;20401;-82
2021/12/08 06:55:14;;;;;;;1139.65;510.60;;;;;;;;;;4974207;28;20046;-82
2021/12/08 06:57:46;;;;;;;1999.90;999.90;;;;;;;;;;4983020;28;20524;-81
2021/12/08 07:00:35;;;;;;;1999.90;999.90;;;;;;;;;;4974894;28;20022;-86
2021/12/08 07:08:24;;;;;;;1999.90;999.90;;;;;;;;;;4979924;28;20504;-89
2021/12/08 07:10:53;;;;;;;1999.90;999.90;;;;;;;;;;4978485;28;20476;-87
2021/12/08 07:13:22;;;;;;;268.30;23.27;;;;;;;;;;4978705;28;20040;-86
2021/12/08 07:16:04;;;;;;;1999.90;999.90;;;;;;;;;;4962557;28;20152;-88
2021/12/08 07:18:39;;;;;;;1999.90;999.90;;;;;;;;;;4978534;28;20327;-88
2021/12/08 07:21:06;;;;;;;1999.90;999.90;;;;;;;;;;4990498;28;20457;-87
2021/12/08 07:23:38;;;;;;;1999.90;999.90;;;;;;;;;;4991621;28;20113;-88
2021/12/08 07:26:07;;;;;;;1999.90;999.90;;;;;;;;;;5008154;28;20041;-88
2021/12/08 07:28:33;;;;;;;1999.90;999.90;;;;;;;;;;4979532;28;20053;-87
2021/12/08 07:31:05;;;;;;;1999.90;999.90;;;;;;;;;;4980916;28;20034;-86
2021/12/08 07:33:30;;;;;;;1999.90;999.90;;;;;;;;;;4965587;28;20507;-87
2021/12/08 07:35:57;;;;;;;1999.90;999.90;;;;;;;;;;4981703;28;20129;-89
2021/12/08 07:38:24;;;;;;;1999.90;999.90;;;;;;;;;;4978567;28;20030;-88
2021/12/08 07:41:11;;;;;;;1693.35;766.78;;;;;;;;;;4957718;28;20030;-89
2021/12/08 07:43:41;;;;;;;1999.90;999.90;;;;;;;;;;4982132;28;20022;-88
2021/12/08 07:46:22;;;;;;;1999.90;999.90;;;;;;;;;;4981826;28;20026;-86
2021/12/08 07:48:50;;;;;;;1999.90;999.90;;;;;;;;;;4980266;28;20041;-86
2021/12/08 07:51:22;;;;;;;1999.90;999.90;;;;;;;;;;4980254;28;20179;-87
2021/12/08 07:53:48;;;;;;;1999.90;999.90;;;;;;;;;;4981165;28;20037;-87
2021/12/08 07:56:14;;;;;;;1652.13;761.13;;;;;;;;;;4996706;28;20034;-87
2021/12/08 07:58:41;;;;;;;1999.90;999.90;;;;;;;;;;4996886;28;20100;-86
2021/12/08 08:01:12;;;;;;;1999.90;999.90;;;;;;;;;;4976483;28;20081;-87
2021/12/08 08:03:38;;;;;;;1999.90;999.90;;;;;;;;;;4977259;28;20041;-87
2021/12/08 08:06:06;;;;;;;1999.90;999.90;;;;;;;;;;4980524;28;20030;-87
2021/12/08 08:08:34;;;;;;;1999.90;999.90;;;;;;;;;;4964764;28;20414;-88
2021/12/08 08:11:39;;;;;;;1999.90;999.90;;;;;;;;;;4996831;28;20034;-87
2021/12/08 08:14:27;;;;;;;1999.90;999.90;;;;;;;;;;4998618;28;20049;-86
2021/12/08 08:16:57;;;;;;;1999.90;999.90;;;;;;;;;;4996984;28;20522;-87
2021/12/08 08:19:27;;;;;;;1617.82;759.72;;;;;;;;;;4981545;28;20041;-87
2021/12/08 08:21:56;;;;;;;1999.90;999.90;;;;;;;;;;4980966;28;20068;-88
2021/12/08 08:24:21;;;;;;;1999.90;999.90;;;;;;;;;;4964544;28;20034;-87
2021/12/08 08:26:48;;;;;;;1999.90;999.90;;;;;;;;;;4995972;28;20539;-87
2021/12/08 08:29:14;;;;;;;1999.90;999.90;;;;;;;;;;4980144;28;20041;-87
2021/12/08 08:31:53;;;;;;;1707.63;764.92;;;;;;;;;;4962299;28;20096;-86
2021/12/08 08:34:18;;;;;;;1999.90;999.90;;;;;;;;;;4965964;28;20038;-87
2021/12/08 08:36:45;;;;;;;1999.90;999.90;;;;;;;;;;4980097;28;20495;-86
2021/12/08 08:39:13;;;;;;;1717.13;765.72;;;;;;;;;;4992840;28;20039;-86
2021/12/08 08:41:50;;;;;;;690.05;43.65;;;;;;;;;;4986510;28;20112;-86
2021/12/08 08:44:49;;;;;;;1999.90;999.90;;;;;;;;;;4964663;28;20033;-86
2021/12/08 08:47:27;;;;;;;1999.90;999.90;;;;;;;;;;4991356;28;20046;-87
2021/12/08 08:49:53;;;;;;;1999.90;999.90;;;;;;;;;;4980041;28;20030;-86
2021/12/08 08:52:27;;;;;;;1999.90;999.90;;;;;;;;;;4979839;28;20061;-87
2021/12/08 08:54:53;;;;;;;1999.90;999.90;;;;;;;;;;4980159;28;20034;-86
2021/12/08 08:57:30;;;;;;;1714.43;765.05;;;;;;;;;;4979895;28;20029;-87
2021/12/08 09:00:19;;;;;;;1999.90;999.90;;;;;;;;;;4964566;28;20381;-86
2021/12/08 09:02:45;;;;;;;1999.90;999.90;;;;;;;;;;5010477;28;20065;-86
2021/12/08 09:05:17;;;;;;;1999.90;999.90;;;;;;;;;;4979653;28;20028;-86
2021/12/08 09:07:45;;;;;;;1999.90;999.90;;;;;;;;;;4983617;28;20037;-86
2021/12/08 09:10:15;;;;;;;1999.90;999.90;;;;;;;;;;4991942;28;20025;-85
2021/12/08 09:12:47;;;;;;;1999.90;999.90;;;;;;;;;;4963816;28;20087;-86
2021/12/08 09:15:21;;;;;;;;;;;;;;;;;;4963466;28;20040;-86
2021/12/08 09:17:51;;;;;;;1999.90;999.90;;;;;;;;;;4995806;28;19935;-86
2021/12/08 09:20:56;;;;;;;1999.90;999.90;;;;;;;;;;4980044;28;20026;-87
2021/12/08 09:23:35;;;;;;;1999.90;999.90;;;;;;;;;;4974712;28;20436;-87
2021/12/08 09:26:05;;;;;;;1999.90;999.90;;;;;;;;;;4963474;28;20034;-86
2021/12/08 09:28:39;;;;;;;1999.90;999.90;;;;;;;;;;4978975;28;20453;-87
2021/12/08 09:31:29;;;;;;;1999.90;999.90;;;;;;;;;;4979441;28;20080;-87
2021/12/08 09:33:56;;;;;;;1318.47;528.13;;;;;;;;;;4988542;28;20092;-87
2021/12/08 09:36:50;;;;;;;1999.90;999.90;;;;;;;;;;4995714;28;20068;-86
2021/12/08 09:39:24;;;;;;;1999.90;999.90;;;;;;;;;;4992512;28;20128;-87
2021/12/08 09:42:08;;;;;;;1999.90;999.90;;;;;;;;;;4995931;28;20037;-86
2021/12/08 09:44:41;;;;;;;1999.90;999.90;;;;;;;;;;4996575;28;20056;-86
2021/12/08 09:47:07;;;;;;;1999.90;999.90;;;;;;;;;;4963592;28;20037;-86
2021/12/08 09:49:35;;;;;;;1999.90;999.90;;;;;;;;;;4978617;28;20034;-86
2021/12/08 09:52:00;;;;;;;1051.43;289.42;;;;;;;;;;4959639;28;20042;-87
2021/12/08 09:54:26;;;;;;;1376.22;527.70;;;;;;;;;;4991682;28;20038;-86
2021/12/08 09:56:53;;;;;;;1999.90;999.90;;;;;;;;;;4959556;28;20042;-86
2021/12/08 09:59:18;;;;;;;1999.90;999.90;;;;;;;;;;4959487;28;20030;-87
2021/12/08 10:01:44;;;;;;;1999.90;999.90;;;;;;;;;;4968568;28;20117;-87
2021/12/08 10:04:11;;;;;;;1365.13;167.48;;;;;;;;;;4994760;28;20032;-86
2021/12/08 10:06:37;;;;;;;1822.60;784.60;;;;;;;;;;4978315;28;20040;-86
2021/12/08 10:09:03;;;;;;;1999.90;999.90;;;;;;;;;;4993240;28;20026;-86
2021/12/08 10:11:30;;;;;;;1192.25;306.50;;;;;;;;;;4997477;28;20041;-86
2021/12/08 10:13:56;;;;;;;1999.90;999.90;;;;;;;;;;4975565;28;20084;-87
2021/12/08 10:16:22;;;;;;;1999.90;999.90;;;;;;;;;;4974232;28;20042;-87
2021/12/08 10:18:48;;;;;;;1999.90;999.90;;;;;;;;;;4994146;28;20030;-87
2021/12/08 10:21:15;;;;;;;1671.57;570.72;;;;;;;;;;4994705;28;20116;-87
2021/12/08 10:23:42;;;;;;;1760.78;781.80;;;;;;;;;;4978221;28;20021;-87
2021/12/08 10:26:12;;;;;;;1720.60;772.40;;;;;;;;;;4978129;28;20034;-87
2021/12/08 10:28:39;;;;;;;1902.60;792.80;;;;;;;;;;4974711;28;20030;-87
2021/12/08 10:31:27;;;;;;;1094.93;296.65;;;;;;;;;;4987060;28;20025;-87
2021/12/08 10:36:54;;;;;;;1860.63;789.53;;;;;;;;;;5010631;28;20037;-88
2021/12/08 10:39:37;;;;;;;1999.90;999.90;;;;;;;;;;4977749;28;20054;-87
2021/12/08 10:42:26;;;;;;;1999.90;999.90;;;;;;;;;;4979348;28;20029;-81
2021/12/08 10:44:56;;;;;;;1854.78;199.00;;;;;;;;;;4979534;28;20076;-81
2021/12/08 10:47:38;;;;;;;1933.55;795.65;;;;;;;;;;5010048;28;20512;-81
2021/12/08 10:55:34;;;;;;;1999.90;999.90;;;;;;;;;;4977529;28;20026;-82
2021/12/08 10:58:00;;;;;;;1999.90;999.90;;;;;;;;;;4958358;28;20121;-82
2021/12/08 11:00:29;;;;;;;1372.22;238.02;;;;;;;;;;4972913;28;20037;-82
2021/12/08 11:03:00;;;;;;;1474.07;131.30;;;;;;;;;;4990670;28;20192;-82
2021/12/08 11:05:25;;;;;;;1999.90;999.90;;;;;;;;;;4997241;28;20083;-82
2021/12/08 11:08:05;;;;;;;1999.90;999.90;;;;;;;;;;4996302;28;20124;-83
2021/12/08 11:10:38;;;;;;;1999.90;999.90;;;;;;;;;;4978301;28;20041;-82
2021/12/08 11:13:04;;;;;;;1797.93;418.50;;;;;;;;;;4981355;28;20029;-82
2021/12/08 11:15:30;;;;;;;1476.97;543.22;;;;;;;;;;4993334;28;20429;-81
2021/12/08 11:18:17;;;;;;;1850.30;808.90;;;;;;;;;;4983590;28;20106;-82
2021/12/08 11:20:47;;;;;;;1999.90;999.90;;;;;;;;;;5037502;28;20025;-82
2021/12/08 11:23:15;;;;;;;1999.90;999.90;;;;;;;;;;5013451;28;20045;-82
2021/12/08 11:25:45;;;;;;;1979.35;273.73;;;;;;;;;;4997210;28;20034;-82
2021/12/08 11:28:29;;;;;;;1440.32;112.68;;;;;;;;;;4996557;28;20065;-82
2021/12/08 11:31:09;;;;;;;1458.95;141.88;;;;;;;;;;4981668;28;20030;-82
2021/12/08 11:33:37;;;;;;;1999.90;999.90;;;;;;;;;;4999380;28;20058;-83
2021/12/08 11:36:22;;;;;;;1228.97;148.98;;;;;;;;;;4965329;28;20029;-83
2021/12/08 11:38:48;;;;;;;1999.90;999.90;;;;;;;;;;4967031;28;20038;-82
2021/12/08 11:41:35;;;;;;;1999.90;651.70;;;;;;;;;;4993330;28;20034;-81
2021/12/08 11:44:22;;;;;;;753.97;139.88;;;;;;;;;;4977245;28;20092;-82
2021/12/08 11:47:12;;;;;;;1327.57;123.25;;;;;;;;;;5005185;28;20570;-82
2021/12/08 11:49:49;;;;;;;1999.90;999.90;;;;;;;;;;4989791;28;20049;-84
2021/12/08 11:52:20;;;;;;;1999.90;999.90;;;;;;;;;;4963629;28;20046;-84
2021/12/08 11:54:49;;;;;;;1528.95;339.25;;;;;;;;;;4996693;28;20034;-84
2021/12/08 11:57:33;;;;;;;1999.90;999.90;;;;;;;;;;5012687;28;20125;-84
2021/12/08 12:00:01;;;;;;;1970.07;224.02;;;;;;;;;;4996793;28;20571;-83
2021/12/08 12:02:38;;;;;;;1753.50;399.52;;;;;;;;;;5012968;28;20033;-84
2021/12/08 12:05:06;;;;;;;1506.75;182.10;;;;;;;;;;4996575;28;20046;-83
2021/12/08 12:07:35;;;;;;;1847.70;644.50;;;;;;;;;;4988221;28;20227;-84
2021/12/08 12:10:00;;;;;;;1693.25;174.07;;;;;;;;;;4958240;28;20120;-83
2021/12/08 12:12:26;;;;;;;1991.97;299.63;;;;;;;;;;4980103;28;20029;-83
2021/12/08 12:14:51;;;;;;;1999.90;333.08;;;;;;;;;;4979069;28;20038;-83
2021/12/08 12:17:17;;;;;;;1999.90;840.97;;;;;;;;;;4980383;28;20037;-84
2021/12/08 12:19:47;;;;;;;1499.13;183.48;;;;;;;;;;4980194;28;20038;-84
2021/12/08 12:22:34;;;;;;;1985.85;322.08;;;;;;;;;;4963888;28;20038;-84
2021/12/08 12:25:06;;;;;;;1925.55;631.10;;;;;;;;;;5012297;28;20049;-83
2021/12/08 12:28:03;;;;;;;1922.63;321.67;;;;;;;;;;4994024;28;20058;-84
2021/12/08 12:30:33;;;;;;;1891.97;219.25;;;;;;;;;;4978443;28;20061;-83
2021/12/08 12:32:58;;;;;;;1999.90;999.90;;;;;;;;;;5000155;28;20089;-84
2021/12/08 12:35:30;;;;;;;1937.75;279.27;;;;;;;;;;4989939;28;20547;-84
2021/12/08 12:38:03;;;;;;;1800.28;601.83;;;;;;;;;;4996242;28;20033;-84
2021/12/08 12:40:31;;;;;;;1999.90;333.40;;;;;;;;;;5011583;28;20049;-84
2021/12/08 12:43:06;;;;;;;1999.90;403.00;;;;;;;;;;4996102;28;20084;-84
2021/12/08 12:45:45;;;;;;;1989.43;400.10;;;;;;;;;;4983168;28;20030;-84
2021/12/08 12:48:18;;;;;;;1819.65;284.27;;;;;;;;;;4979927;28;20026;-84
2021/12/08 12:50:57;;;;;;;1999.90;624.95;;;;;;;;;;4996203;28;20045;-84
2021/12/08 12:53:45;;;;;;;1872.13;508.60;;;;;;;;;;5012060;28;20065;-84
2021/12/08 12:56:20;;;;;;;1999.90;999.90;;;;;;;;;;4995832;28;20108;-83
2021/12/08 12:58:50;;;;;;;1812.68;598.88;;;;;;;;;;4979953;28;20053;-82
2021/12/08 13:01:29;;;;;;;1999.90;826.28;;;;;;;;;;4979199;28;20041;-84
2021/12/08 13:04:07;;;;;;;1446.85;247.35;;;;;;;;;;4979367;28;20033;-83
2021/12/08 13:06:40;;;;;;;1954.10;296.67;;;;;;;;;;4979471;28;20455;-82
2021/12/08 13:09:07;;;;;;;1999.90;826.40;;;;;;;;;;4973239;28;20113;-81
2021/12/08 13:11:44;;;;;;;1999.90;999.90;;;;;;;;;;4959852;28;20542;-81
2021/12/08 13:14:26;;;;;;;1686.90;170.57;;;;;;;;;;4983170;28;20021;-82
2021/12/08 13:17:13;;;;;;;1896.88;425.50;;;;;;;;;;4992305;28;20036;-82
2021/12/08 13:19:43;;;;;;;1999.90;999.90;;;;;;;;;;4989902;28;20400;-82
2021/12/08 13:22:09;;;;;;;1999.90;458.88;;;;;;;;;;4964999;28;20124;-83
2021/12/08 13:24:35;;;;;;;1772.57;150.48;;;;;;;;;;4967821;28;20156;-82
2021/12/08 13:27:05;;;;;;;1999.90;825.85;;;;;;;;;;5028940;28;20132;-82
2021/12/08 13:29:33;;;;;;;1999.90;999.90;;;;;;;;;;4978245;28;20034;-82
2021/12/08 13:32:09;;;;;;;1977.07;628.72;;;;;;;;;;4966900;28;20040;-82
2021/12/08 13:34:34;;;;;;;1713.40;199.38;;;;;;;;;;5004162;28;20109;-82
2021/12/08 13:37:22;;;;;;;1999.90;666.38;;;;;;;;;;4976237;28;20400;-83
2021/12/08 13:39:49;;;;;;;1627.32;271.13;;;;;;;;;;5009450;28;20037;-82
2021/12/08 13:42:29;;;;;;;1988.38;668.72;;;;;;;;;;4977029;28;20029;-83
2021/12/08 13:45:07;;;;;;;1523.15;228.40;;;;;;;;;;4978362;28;20487;-82
2021/12/08 13:47:37;;;;;;;1549.07;535.90;;;;;;;;;;4979050;28;20045;-82
2021/12/08 13:50:12;;;;;;;1971.22;339.27;;;;;;;;;;4994482;28;20037;-82
2021/12/08 13:52:39;;;;;;;1999.90;258.95;;;;;;;;;;5009191;28;20041;-83
2021/12/08 13:55:08;;;;;;;1922.72;620.03;;;;;;;;;;4993864;28;20034;-82
2021/12/08 13:57:40;;;;;;;1396.93;180.32;;;;;;;;;;5011045;28;20050;-82
2021/12/08 14:00:08;;;;;;;;;;;;;;;;;;4995363;28;20131;-82
2021/12/08 14:02:37;;;;;;;1211.65;128.15;;;;;;;;;;5026852;28;20039;-82
2021/12/08 14:05:04;;;;;;;1892.18;629.88;;;;;;;;;;4991465;28;20484;-81
2021/12/08 14:07:30;;;;;;;1999.90;268.70;;;;;;;;;;5009453;28;20029;-82
2021/12/08 14:09:57;;;;;;;1721.15;191.85;;;;;;;;;;4993951;28;20033;-82
2021/12/08 14:12:23;;;;;;;1771.70;215.23;;;;;;;;;;4994478;28;20062;-82
2021/12/08 14:14:55;;;;;;;1999.90;999.90;;;;;;;;;;4994159;28;20114;-82
2021/12/08 14:17:28;;;;;;;1447.57;180.93;;;;;;;;;;4994242;28;20026;-82
2021/12/08 14:19:53;;;;;;;1274.13;138.02;;;;;;;;;;4978517;28;20480;-81
2021/12/08 14:22:19;;;;;;;1999.90;499.50;;;;;;;;;;4977985;28;20036;-81
2021/12/08 14:24:53;;;;;;;1999.90;263.67;;;;;;;;;;4978257;28;20038;-82
2021/12/08 14:27:18;;;;;;;1821.60;384.58;;;;;;;;;;4993760;28;20041;-82
2021/12/08 14:29:47;;;;;;;1999.90;839.55;;;;;;;;;;4977778;28;20041;-82
2021/12/08 14:32:13;;;;;;;1560.95;366.33;;;;;;;;;;4994050;28;20026;-82
2021/12/08 14:34:39;;;;;;;1678.93;154.85;;;;;;;;;;5010925;28;20121;-84
2021/12/08 14:37:10;;;;;;;1829.05;781.67;;;;;;;;;;5010798;28;20030;-82
2021/12/08 14:39:45;;;;;;;1825.03;779.47;;;;;;;;;;4997903;28;20091;-82
2021/12/08 14:42:16;;;;;;;1806.45;627.15;;;;;;;;;;4998062;28;20018;-82
2021/12/08 14:44:53;;;;;;;1999.90;808.70;;;;;;;;;;4998003;28;20149;-83
2021/12/08 14:47:28;;;;;;;1831.50;388.38;;;;;;;;;;4979721;28;20121;-82
2021/12/08 14:50:00;;;;;;;1886.57;251.82;;;;;;;;;;5000200;28;20038;-82
2021/12/08 14:52:25;;;;;;;1916.97;209.50;;;;;;;;;;4982603;28;20081;-82